Bingley, United Kingdom
Current Conditions -  °F | °C
As of 4:20 AM on Wednesday 22 Oct 2014 (Local Time) from EGNM Reporting Station
Clear Clear  
Wind Chill: 35°   Ceiling: Unl
Heat Index: 43°   Visibility: 6mi
Dew Point: 41°   Wind: 15mph
Humidity: 93%   Direction: 300°WNW
Pressure: 30.09"   Gusts: NA
Location:  53.85°N, 1.84°W
Report Text: EGNM 220320Z 30013KT CAVOK 06/05 Q1019
Loading
Personal Weather Stations






























Interactive Weather Map
Tropical Storm Tracking
New forecast layout! Learn more

10-Day Weather Forecast

Advertisements
Track Severe Weather on mobile